Marlow, New Hampshire
Current Conditions -  °F | °C
As of 8:35 PM on Saturday 25 Oct 2014 (Local Time) from KEEN Reporting Station
Broken Clouds Broken Clouds  
Wind Chill: 48°   Ceiling: 8500
Heat Index: 48°   Visibility: 9mi
Dew Point: 39°   Wind: 0mph
Humidity: 71%   Direction: NA
Pressure: 29.54"   Gusts: NA
Location:  43.12°N, 72.2°W
Report Text: KEEN 260035Z AUTO 00000KT 9SM BKN085 09/04 A2954 RMK AO1
Loading
Personal Weather Stations






























Interactive Weather Map
Tropical Storm Tracking
New forecast layout! Learn more

10-Day Weather Forecast

Advertisements
Track Severe Weather on mobile